createdAt,value
2018-02-01T05:00:31.015Z,1.84
2018-02-01T05:00:56.507Z,1.85
2018-02-01T05:01:21.983Z,1.85
2018-02-01T05:01:47.472Z,1.76
2018-02-01T05:02:13.032Z,1.85
2018-02-01T05:02:38.443Z,1.88
2018-02-01T05:03:03.928Z,1.77
2018-02-01T05:03:29.433Z,1.81
2018-02-01T05:03:54.883Z,1.81
2018-02-01T05:04:20.340Z,1.8
2018-02-01T05:04:45.797Z,1.84
2018-02-01T05:05:11.306Z,1.84
2018-02-01T05:05:36.766Z,1.76
2018-02-01T05:06:02.230Z,1.7
2018-02-01T05:06:27.743Z,1.81
2018-02-01T05:06:53.207Z,1.8
2018-02-01T05:07:18.677Z,1.85
2018-02-01T05:07:44.144Z,1.84
2018-02-01T05:08:09.630Z,1.76
2018-02-01T05:08:35.089Z,1.81
2018-02-01T05:09:00.551Z,1.77
2018-02-01T05:09:26.040Z,1.78
2018-02-01T05:09:51.515Z,1.77
2018-02-01T05:10:16.987Z,1.87
2018-02-01T05:10:42.455Z,1.84
2018-02-01T05:11:07.950Z,1.8
2018-02-01T05:11:33.436Z,1.85
2018-02-01T05:11:58.920Z,1.87
2018-02-01T05:12:24.392Z,1.81
2018-02-01T05:12:49.863Z,1.87
2018-02-01T05:13:15.338Z,1.85
2018-02-01T05:13:40.821Z,1.8
2018-02-01T05:14:06.286Z,1.84
2018-02-01T05:14:31.720Z,1.74
2018-02-01T05:14:57.188Z,1.8
2018-02-01T05:15:22.685Z,1.8
2018-02-01T05:16:31.390Z,1.8
2018-02-01T05:16:56.879Z,1.73
2018-02-01T05:17:22.373Z,1.78
2018-02-01T05:17:47.849Z,1.77
2018-02-01T05:18:13.307Z,1.84
2018-02-01T05:18:38.835Z,1.85
2018-02-01T05:19:04.297Z,1.73
2018-02-01T05:19:29.754Z,1.88
2018-02-01T05:19:55.247Z,1.77
2018-02-01T05:20:20.671Z,1.84
2018-02-01T05:20:46.135Z,1.81
2018-02-01T05:21:11.588Z,1.77
2018-02-01T05:21:37.061Z,1.84
2018-02-01T05:22:02.500Z,1.77
2018-02-01T05:22:27.946Z,1.8
2018-02-01T05:22:53.412Z,1.85
2018-02-01T05:23:18.887Z,1.8
2018-02-01T05:23:44.368Z,1.8
2018-02-01T05:24:09.823Z,1.84
2018-02-01T05:24:35.267Z,1.84
2018-02-01T05:25:00.727Z,1.76
2018-02-01T05:25:26.259Z,1.78
2018-02-01T05:25:51.673Z,1.81
2018-02-01T05:26:17.140Z,1.73
2018-02-01T05:26:42.613Z,1.71
2018-02-01T05:27:08.154Z,1.74
2018-02-01T05:27:33.643Z,1.71
2018-02-01T05:27:59.104Z,1.8
2018-02-01T05:28:24.558Z,1.73
2018-02-01T05:28:50.030Z,1.71
2018-02-01T05:29:15.504Z,1.7
2018-02-01T05:29:40.946Z,1.81
2018-02-01T05:30:06.424Z,1.8
2018-02-01T05:30:31.882Z,1.85
2018-02-01T05:30:57.329Z,1.8
2018-02-01T05:31:22.812Z,1.81
2018-02-01T05:31:48.265Z,1.71
2018-02-01T05:32:13.753Z,1.81
2018-02-01T05:32:39.330Z,1.78
2018-02-01T05:33:04.683Z,1.76
2018-02-01T05:33:30.161Z,1.76
2018-02-01T05:33:55.637Z,1.67
2018-02-01T05:34:21.066Z,1.76
2018-02-01T05:34:46.550Z,1.76
2018-02-01T05:35:12.006Z,1.77
2018-02-01T05:35:37.477Z,1.77
2018-02-01T05:36:02.953Z,1.78
2018-02-01T05:36:28.400Z,1.8
2018-02-01T05:36:53.934Z,1.76
2018-02-01T05:37:19.379Z,1.78
2018-02-01T05:37:44.865Z,1.77
2018-02-01T05:38:10.337Z,1.78
2018-02-01T05:38:35.796Z,1.76
2018-02-01T05:39:01.294Z,1.71
2018-02-01T05:39:26.735Z,1.78
2018-02-01T05:39:52.248Z,1.8
2018-02-01T05:40:17.656Z,1.76
2018-02-01T05:40:43.164Z,1.78
2018-02-01T05:41:08.766Z,1.76
2018-02-01T05:41:34.278Z,1.71
2018-02-01T05:41:59.729Z,1.76
2018-02-01T05:42:25.189Z,1.78
2018-02-01T05:42:50.645Z,1.77
2018-02-01T05:43:16.148Z,1.74
2018-02-01T05:43:41.603Z,1.71
2018-02-01T05:44:07.045Z,1.71
2018-02-01T05:44:32.526Z,1.73
2018-02-01T05:44:58.036Z,1.73
2018-02-01T05:45:23.509Z,1.76
2018-02-01T05:45:48.997Z,1.73
2018-02-01T05:46:14.452Z,1.71
2018-02-01T05:46:39.919Z,1.71
2018-02-01T05:47:05.399Z,1.77
2018-02-01T05:47:30.819Z,1.71
2018-02-01T05:47:56.282Z,1.71
2018-02-01T05:48:21.797Z,1.74
2018-02-01T05:48:47.380Z,1.74
2018-02-01T05:49:12.850Z,1.74
2018-02-01T05:49:38.324Z,1.71
2018-02-01T05:50:03.778Z,1.71
2018-02-01T05:50:29.254Z,1.7
2018-02-01T05:50:54.732Z,1.73
2018-02-01T05:51:20.199Z,1.71
2018-02-01T05:51:45.684Z,1.76
2018-02-01T05:52:11.160Z,1.73
2018-02-01T05:52:36.626Z,1.71
2018-02-01T05:53:02.159Z,1.67
2018-02-01T05:53:27.604Z,1.73
2018-02-01T05:53:53.096Z,1.68
2018-02-01T05:54:18.560Z,1.71
2018-02-01T05:54:44.025Z,1.71
2018-02-01T05:55:09.523Z,1.68
2018-02-01T05:55:34.996Z,1.67
2018-02-01T05:56:00.452Z,1.74
2018-02-01T05:56:25.932Z,1.73
2018-02-01T05:56:51.446Z,1.74
2018-02-01T05:57:16.928Z,1.73
2018-02-01T05:57:42.432Z,1.7
2018-02-01T05:58:07.939Z,1.73
2018-02-01T05:58:33.389Z,1.6
2018-02-01T05:58:58.858Z,1.62
2018-02-01T05:59:24.303Z,1.63
2018-02-01T05:59:49.795Z,1.62
2018-02-01T06:00:15.257Z,1.62
2018-02-01T06:00:40.715Z,1.58
2018-02-01T06:01:06.188Z,1.67
2018-02-01T06:01:31.696Z,1.6
2018-02-01T06:01:57.111Z,1.6
2018-02-01T06:02:22.637Z,1.62
2018-02-01T06:02:48.115Z,1.6
2018-02-01T06:03:13.592Z,1.62
2018-02-01T06:03:39.043Z,1.7
2018-02-01T06:04:04.496Z,1.66
2018-02-01T06:04:29.959Z,1.63
2018-02-01T06:04:55.405Z,1.67
2018-02-01T06:05:20.867Z,1.58
2018-02-01T06:05:46.342Z,1.6
2018-02-01T06:06:11.796Z,1.6
2018-02-01T06:06:37.324Z,1.6
2018-02-01T06:07:02.785Z,1.6
2018-02-01T06:07:28.251Z,1.6
2018-02-01T06:07:53.730Z,1.6
2018-02-01T06:08:19.199Z,1.58
2018-02-01T06:08:44.654Z,1.56
2018-02-01T06:09:10.124Z,1.68
2018-02-01T06:09:35.620Z,1.6
2018-02-01T06:10:01.054Z,1.6
2018-02-01T06:10:26.525Z,1.56
2018-02-01T06:10:51.987Z,1.55
2018-02-01T06:11:17.459Z,1.56
2018-02-01T06:11:42.945Z,1.55
2018-02-01T06:12:08.412Z,1.56
2018-02-01T06:12:33.874Z,1.58
2018-02-01T06:12:59.351Z,1.58
2018-02-01T06:13:24.825Z,1.56
2018-02-01T06:13:50.279Z,1.62
2018-02-01T06:14:15.714Z,1.67
2018-02-01T06:14:41.203Z,1.62
2018-02-01T06:15:06.702Z,1.63
2018-02-01T06:15:32.138Z,1.58
2018-02-01T06:15:57.638Z,1.58
2018-02-01T06:16:23.116Z,1.62
2018-02-01T06:16:48.594Z,1.67
2018-02-01T06:17:14.048Z,1.62
2018-02-01T06:17:39.512Z,1.7
2018-02-01T06:18:04.922Z,1.59
2018-02-01T06:18:30.431Z,1.59
2018-02-01T06:18:55.881Z,1.56
2018-02-01T06:19:21.347Z,1.62
2018-02-01T06:19:46.842Z,1.67
2018-02-01T06:20:12.293Z,1.62
2018-02-01T06:20:37.765Z,1.58
2018-02-01T06:21:03.267Z,1.67
2018-02-01T06:21:28.724Z,1.56
2018-02-01T06:21:54.196Z,1.6
2018-02-01T06:22:19.667Z,1.62
2018-02-01T06:23:13.086Z,1.52
2018-02-01T06:23:38.593Z,1.66
2018-02-01T06:24:04.073Z,1.63
2018-02-01T06:24:29.567Z,1.55
2018-02-01T06:24:55.000Z,1.5
2018-02-01T06:25:20.485Z,1.55
2018-02-01T06:25:45.923Z,1.52
2018-02-01T06:26:11.376Z,1.52
2018-02-01T06:26:36.883Z,1.55
2018-02-01T06:27:02.378Z,1.55
2018-02-01T06:27:27.878Z,1.55
2018-02-01T06:27:53.300Z,1.56
2018-02-01T06:28:18.785Z,1.59
2018-02-01T06:28:44.268Z,1.52
2018-02-01T06:29:09.710Z,1.58
2018-02-01T06:29:35.158Z,1.55
2018-02-01T06:30:00.658Z,1.59
2018-02-01T06:30:26.067Z,1.56
2018-02-01T06:30:51.564Z,1.5
2018-02-01T06:31:17.048Z,1.45
2018-02-01T06:31:42.649Z,1.45
2018-02-01T06:32:08.091Z,1.56
2018-02-01T06:32:33.573Z,1.48
2018-02-01T06:32:59.049Z,1.58
2018-02-01T06:33:24.501Z,1.48
2018-02-01T06:33:49.980Z,1.55
2018-02-01T06:34:15.432Z,1.56
2018-02-01T06:34:40.922Z,1.49
2018-02-01T06:35:29.229Z,1.49
2018-02-01T06:35:54.824Z,1.45
2018-02-01T06:36:20.298Z,1.48
2018-02-01T06:36:45.791Z,1.55
2018-02-01T06:37:11.307Z,1.49
2018-02-01T06:37:36.682Z,1.49
2018-02-01T06:38:02.164Z,1.5
2018-02-01T06:38:27.836Z,1.55
2018-02-01T06:38:53.300Z,1.56
2018-02-01T06:39:18.771Z,1.44
2018-02-01T06:39:44.360Z,1.48
2018-02-01T06:40:09.795Z,1.55
2018-02-01T06:40:35.324Z,1.44
2018-02-01T06:41:00.738Z,1.48
2018-02-01T06:41:26.209Z,1.49
2018-02-01T06:41:51.668Z,1.48
2018-02-01T06:42:17.135Z,1.5
2018-02-01T06:42:42.622Z,1.41
2018-02-01T06:43:08.104Z,1.42
2018-02-01T06:43:33.561Z,1.44
2018-02-01T06:43:59.095Z,1.56
2018-02-01T06:44:24.493Z,1.55
2018-02-01T06:44:49.981Z,1.55
2018-02-01T06:45:15.415Z,1.49
2018-02-01T06:45:40.880Z,1.55
2018-02-01T06:46:06.363Z,1.42
2018-02-01T06:46:31.812Z,1.56
2018-02-01T06:46:57.271Z,1.59
2018-02-01T06:47:22.716Z,1.45
2018-02-01T06:47:48.196Z,1.59
2018-02-01T06:48:13.659Z,1.53
2018-02-01T06:48:39.104Z,1.53
2018-02-01T06:49:04.612Z,1.58
2018-02-01T06:49:30.124Z,1.55
2018-02-01T06:49:55.581Z,1.5
2018-02-01T06:50:21.077Z,1.49
2018-02-01T06:50:46.528Z,1.5
2018-02-01T06:51:11.990Z,1.56
2018-02-01T06:52:05.418Z,1.48
2018-02-01T06:52:30.914Z,1.44
2018-02-01T06:52:56.424Z,1.52
2018-02-01T06:53:21.881Z,1.59
2018-02-01T06:53:47.409Z,1.48
2018-02-01T06:54:12.885Z,1.48
2018-02-01T06:54:38.396Z,1.45
2018-02-01T06:55:03.876Z,1.48
2018-02-01T06:55:29.330Z,1.42
2018-02-01T06:55:54.766Z,1.44
2018-02-01T06:56:20.317Z,1.44
2018-02-01T06:56:45.824Z,1.42
2018-02-01T06:57:11.306Z,1.6
2018-02-01T06:57:36.690Z,1.48
2018-02-01T06:58:02.143Z,1.44
2018-02-01T06:58:27.600Z,1.45
2018-02-01T06:58:53.054Z,1.41
2018-02-01T06:59:18.523Z,1.45
2018-02-01T06:59:43.984Z,1.45
2018-02-01T07:00:09.466Z,1.48
2018-02-01T07:00:34.927Z,1.44
2018-02-01T07:01:00.388Z,1.44
2018-02-01T07:01:25.842Z,1.48
2018-02-01T07:01:51.327Z,1.44
2018-02-01T07:02:16.803Z,1.56
2018-02-01T07:02:42.241Z,1.53
2018-02-01T07:03:07.707Z,1.44
2018-02-01T07:03:33.171Z,1.48
2018-02-01T07:03:58.644Z,1.53
2018-02-01T07:04:24.115Z,1.44
2018-02-01T07:04:49.571Z,1.42
2018-02-01T07:05:15.035Z,1.44
2018-02-01T07:05:40.498Z,1.38
2018-02-01T07:06:05.932Z,1.45
2018-02-01T07:06:31.420Z,1.42
2018-02-01T07:06:56.886Z,1.5
2018-02-01T07:07:22.403Z,1.45
2018-02-01T07:07:47.845Z,1.41
2018-02-01T07:08:13.334Z,1.45
2018-02-01T07:08:38.781Z,1.42
2018-02-01T07:09:04.230Z,1.49
2018-02-01T07:09:29.685Z,1.48
2018-02-01T07:09:55.200Z,1.44
2018-02-01T07:10:20.690Z,1.37
2018-02-01T07:10:46.161Z,1.45
2018-02-01T07:11:11.641Z,1.45
2018-02-01T07:11:37.121Z,1.5
2018-02-01T07:12:02.588Z,1.44
2018-02-01T07:12:28.134Z,1.4
2018-02-01T07:12:53.621Z,1.45
2018-02-01T07:13:19.096Z,1.41
2018-02-01T07:13:44.581Z,1.5
2018-02-01T07:14:10.032Z,1.41
2018-02-01T07:14:35.495Z,1.45
2018-02-01T07:15:00.951Z,1.45
2018-02-01T07:15:26.424Z,1.5
2018-02-01T07:15:51.884Z,1.42
2018-02-01T07:16:17.343Z,1.44
2018-02-01T07:16:42.837Z,1.48
2018-02-01T07:17:08.288Z,1.44
2018-02-01T07:17:33.732Z,1.42
2018-02-01T07:17:59.200Z,1.45
2018-02-01T07:18:24.646Z,1.44
2018-02-01T07:18:50.139Z,1.5
2018-02-01T07:19:15.583Z,1.5
2018-02-01T07:19:41.064Z,1.4
2018-02-01T07:20:06.541Z,1.34
2018-02-01T07:20:32.001Z,1.45
2018-02-01T07:20:57.459Z,1.48
2018-02-01T07:21:22.921Z,1.44
2018-02-01T07:21:48.401Z,1.49
2018-02-01T07:22:13.869Z,1.45
2018-02-01T07:22:39.354Z,1.4
2018-02-01T07:23:04.818Z,1.42
2018-02-01T07:23:30.285Z,1.45
2018-02-01T07:23:55.733Z,1.45
2018-02-01T07:24:21.203Z,1.38
2018-02-01T07:24:46.671Z,1.45
2018-02-01T07:25:12.149Z,1.42
2018-02-01T07:25:37.620Z,1.42
2018-02-01T07:26:03.078Z,1.48
2018-02-01T07:26:28.553Z,1.45
2018-02-01T07:26:54.030Z,1.49
2018-02-01T07:27:19.506Z,1.56
2018-02-01T07:27:44.949Z,1.48
2018-02-01T07:28:10.448Z,1.48
2018-02-01T07:28:35.877Z,1.45
2018-02-01T07:29:01.369Z,1.42
2018-02-01T07:29:26.789Z,1.55
2018-02-01T07:29:52.249Z,1.5
2018-02-01T07:30:17.741Z,1.44
2018-02-01T07:30:43.201Z,1.45
2018-02-01T07:31:08.667Z,1.49
2018-02-01T07:31:34.157Z,1.48
2018-02-01T07:31:59.661Z,1.52
2018-02-01T07:32:25.091Z,1.44
2018-02-01T07:32:50.571Z,1.45
2018-02-01T07:33:16.054Z,1.55
2018-02-01T07:33:41.508Z,1.49
2018-02-01T07:34:06.981Z,1.44
2018-02-01T07:34:32.546Z,1.45
2018-02-01T07:34:58.035Z,1.6
2018-02-01T07:35:23.487Z,1.49
2018-02-01T07:35:48.946Z,1.58
2018-02-01T07:36:14.408Z,1.44
2018-02-01T07:36:39.906Z,1.56
2018-02-01T07:37:05.411Z,1.49
2018-02-01T07:37:30.807Z,1.53
2018-02-01T07:37:56.291Z,1.56
2018-02-01T07:38:21.765Z,1.53
2018-02-01T07:38:47.277Z,1.52
2018-02-01T07:39:12.736Z,1.55
2018-02-01T07:39:38.187Z,1.58
2018-02-01T07:40:03.705Z,1.52
2018-02-01T07:40:29.150Z,1.62
2018-02-01T07:40:54.618Z,1.6
2018-02-01T07:41:20.064Z,1.58
2018-02-01T07:41:45.506Z,1.55
2018-02-01T07:42:10.959Z,1.62
2018-02-01T07:42:36.421Z,1.63
2018-02-01T07:43:01.953Z,1.53
2018-02-01T07:43:27.399Z,1.55
2018-02-01T07:43:52.872Z,1.56
2018-02-01T07:44:18.338Z,1.59
2018-02-01T07:44:43.793Z,1.56
2018-02-01T07:45:09.265Z,1.6
2018-02-01T07:45:34.755Z,1.67
2018-02-01T07:46:00.225Z,1.59
2018-02-01T07:46:25.691Z,1.59
2018-02-01T07:46:51.170Z,1.6
2018-02-01T07:47:16.674Z,1.6
2018-02-01T07:47:42.116Z,1.6
2018-02-01T07:48:07.572Z,1.56
2018-02-01T07:48:33.074Z,1.58
2018-02-01T07:48:58.547Z,1.59
2018-02-01T07:49:24.019Z,1.6
2018-02-01T07:49:49.505Z,1.63
2018-02-01T07:50:14.968Z,1.6
2018-02-01T07:50:40.420Z,1.59
2018-02-01T07:51:05.953Z,1.6
2018-02-01T07:51:31.371Z,1.62
2018-02-01T07:51:56.839Z,1.67
2018-02-01T07:52:22.303Z,1.59
2018-02-01T07:52:47.759Z,1.62
2018-02-01T07:53:13.236Z,1.66
2018-02-01T07:53:38.692Z,1.67
2018-02-01T07:54:04.157Z,1.66
2018-02-01T07:54:29.603Z,1.67
2018-02-01T07:54:55.074Z,1.67
2018-02-01T07:55:20.567Z,1.63
2018-02-01T07:55:46.028Z,1.71
2018-02-01T07:56:11.506Z,1.7
2018-02-01T07:56:37.090Z,1.74
2018-02-01T07:57:02.555Z,1.66
2018-02-01T07:57:28.024Z,1.63
2018-02-01T07:57:53.477Z,1.68
2018-02-01T07:58:18.952Z,1.74
2018-02-01T07:58:44.389Z,1.74
2018-02-01T07:59:09.866Z,1.7
2018-02-01T07:59:35.365Z,1.7
2018-02-01T08:00:00.823Z,1.73
2018-02-01T08:00:26.292Z,1.74
2018-02-01T08:00:51.844Z,1.77
2018-02-01T08:01:17.332Z,1.74
2018-02-01T08:01:42.819Z,1.74
2018-02-01T08:02:08.280Z,1.81
2018-02-01T08:02:33.730Z,1.81
2018-02-01T08:02:59.186Z,1.78
2018-02-01T08:03:24.677Z,1.81
2018-02-01T08:03:50.161Z,1.77
2018-02-01T08:04:15.653Z,1.77
2018-02-01T08:04:41.111Z,1.81
2018-02-01T08:05:06.581Z,1.78
2018-02-01T08:05:32.020Z,1.71
2018-02-01T08:05:57.506Z,1.8
2018-02-01T08:06:22.969Z,1.71
2018-02-01T08:06:48.454Z,1.8
2018-02-01T08:07:13.944Z,1.8
2018-02-01T08:07:39.368Z,1.74
2018-02-01T08:08:04.808Z,1.68
2018-02-01T08:08:30.289Z,1.74
2018-02-01T08:08:55.739Z,1.84
2018-02-01T08:09:21.290Z,1.74
2018-02-01T08:09:46.756Z,1.76
2018-02-01T08:10:12.262Z,1.88
2018-02-01T08:10:37.696Z,1.74
2018-02-01T08:11:03.170Z,1.78
2018-02-01T08:11:28.645Z,1.87
2018-02-01T08:11:54.113Z,1.87
2018-02-01T08:12:19.621Z,1.88
2018-02-01T08:12:45.125Z,1.89
2018-02-01T08:13:10.598Z,1.87
2018-02-01T08:13:36.057Z,1.97
2018-02-01T08:14:01.651Z,1.85
2018-02-01T08:14:27.109Z,1.8
2018-02-01T08:14:52.626Z,1.91
2018-02-01T08:15:18.122Z,1.94
2018-02-01T08:15:43.710Z,1.94
2018-02-01T08:16:09.269Z,1.95
2018-02-01T08:16:34.743Z,1.95
2018-02-01T08:17:00.176Z,1.94
2018-02-01T08:17:25.670Z,2
2018-02-01T08:17:51.124Z,2
2018-02-01T08:18:16.611Z,2.04
2018-02-01T08:18:42.185Z,2
2018-02-01T08:19:45.981Z,1.99
2018-02-01T08:20:11.391Z,1.99
2018-02-01T08:20:37.042Z,1.99
2018-02-01T08:21:02.635Z,2.02
2018-02-01T08:21:28.078Z,2.04
2018-02-01T08:21:53.527Z,2.08
2018-02-01T08:22:18.989Z,2.02
2018-02-01T08:22:44.476Z,2.1
2018-02-01T08:23:09.938Z,2.08
2018-02-01T08:23:35.420Z,2.13
2018-02-01T08:24:00.892Z,2.11
2018-02-01T08:24:26.348Z,2.13
2018-02-01T08:24:51.809Z,2.14
2018-02-01T08:25:17.276Z,2.14
2018-02-01T08:25:42.751Z,2.2
2018-02-01T08:26:08.242Z,2.17
2018-02-01T08:26:33.703Z,2.18
2018-02-01T08:26:59.192Z,2.28
2018-02-01T08:27:24.673Z,2.26
2018-02-01T08:27:50.146Z,2.26
2018-02-01T08:28:15.635Z,2.26
2018-02-01T08:28:41.086Z,2.29
2018-02-01T08:29:06.564Z,2.28
2018-02-01T08:29:32.034Z,2.25
2018-02-01T08:29:57.480Z,2.26
2018-02-01T08:30:22.938Z,2.29
2018-02-01T08:30:48.426Z,2.32
2018-02-01T08:31:13.855Z,2.35
2018-02-01T08:31:39.340Z,2.25
2018-02-01T08:32:04.844Z,2.28
2018-02-01T08:32:30.307Z,2.38
2018-02-01T08:32:55.773Z,2.33
2018-02-01T08:33:21.228Z,2.32
2018-02-01T08:33:46.743Z,2.31
2018-02-01T08:34:12.179Z,2.39
2018-02-01T08:34:37.613Z,2.39
2018-02-01T08:35:03.119Z,2.39
2018-02-01T08:35:28.552Z,2.44
2018-02-01T08:35:54.005Z,2.44
2018-02-01T08:36:19.490Z,2.47
2018-02-01T08:36:44.912Z,2.47
2018-02-01T08:37:10.380Z,2.51
2018-02-01T08:37:35.868Z,2.6
2018-02-01T08:38:01.312Z,2.57
2018-02-01T08:38:26.765Z,2.6
2018-02-01T08:38:52.231Z,2.64
2018-02-01T08:39:17.706Z,2.65
2018-02-01T08:39:43.178Z,2.56
2018-02-01T08:40:08.638Z,2.62
2018-02-01T08:40:34.105Z,2.6
2018-02-01T08:40:59.580Z,2.6
2018-02-01T08:41:25.053Z,2.56
2018-02-01T08:41:50.535Z,2.56
2018-02-01T08:42:15.995Z,2.61
2018-02-01T08:42:41.503Z,2.68
2018-02-01T08:43:06.946Z,2.67
2018-02-01T08:43:32.395Z,2.67
2018-02-01T08:43:57.862Z,2.69
2018-02-01T08:44:23.335Z,2.79
2018-02-01T08:44:48.798Z,2.77
2018-02-01T08:45:14.253Z,2.79
2018-02-01T08:45:39.720Z,2.75
2018-02-01T08:46:05.231Z,2.79
2018-02-01T08:46:30.657Z,2.79
2018-02-01T08:46:56.116Z,2.85
2018-02-01T08:47:21.555Z,2.82
2018-02-01T08:47:47.056Z,2.86
2018-02-01T08:48:12.487Z,2.87
2018-02-01T08:48:37.949Z,2.92
2018-02-01T08:49:03.447Z,2.92
2018-02-01T08:49:28.850Z,2.92
2018-02-01T08:49:54.338Z,2.9
2018-02-01T08:50:19.798Z,2.9
2018-02-01T08:50:45.397Z,2.93
2018-02-01T08:51:10.875Z,3.01
2018-02-01T08:51:36.332Z,2.92
2018-02-01T08:52:01.805Z,3.07
2018-02-01T08:52:27.280Z,3.05
2018-02-01T08:52:52.756Z,3.01
2018-02-01T08:53:18.211Z,2.98
2018-02-01T08:53:43.714Z,3.01
2018-02-01T08:54:09.218Z,3.08
2018-02-01T08:54:34.656Z,3.07
2018-02-01T08:55:00.133Z,3.07
2018-02-01T08:55:25.599Z,3.01
2018-02-01T08:55:51.070Z,3.07
2018-02-01T08:56:16.520Z,3.08
2018-02-01T08:56:42.048Z,3.11
2018-02-01T08:57:07.468Z,3.13
2018-02-01T08:57:32.919Z,3.05
2018-02-01T08:57:58.424Z,3.11
2018-02-01T08:58:23.945Z,3.14
2018-02-01T08:58:49.354Z,3.16
2018-02-01T08:59:14.825Z,3.19
2018-02-01T08:59:40.271Z,3.19
2018-02-01T09:00:05.736Z,3.26
2018-02-01T09:00:31.180Z,3.23
2018-02-01T09:00:56.646Z,3.29
2018-02-01T09:01:22.118Z,3.21
2018-02-01T09:01:47.583Z,3.31
2018-02-01T09:02:13.032Z,3.28
2018-02-01T09:02:38.501Z,3.34
2018-02-01T09:03:03.987Z,3.32
2018-02-01T09:03:29.446Z,3.29
2018-02-01T09:03:55.045Z,3.32
2018-02-01T09:04:20.533Z,3.44
2018-02-01T09:04:45.954Z,3.34
2018-02-01T09:05:11.460Z,3.29
2018-02-01T09:05:36.903Z,3.29
2018-02-01T09:06:02.342Z,3.42
2018-02-01T09:06:27.813Z,3.34
2018-02-01T09:06:53.329Z,3.45
2018-02-01T09:07:18.803Z,3.44
2018-02-01T09:07:44.332Z,3.42
2018-02-01T09:08:09.820Z,3.48
2018-02-01T09:08:35.319Z,3.56
2018-02-01T09:09:00.720Z,3.5
2018-02-01T09:09:26.211Z,3.51
2018-02-01T09:09:51.640Z,3.47
2018-02-01T09:10:17.107Z,3.53
2018-02-01T09:10:42.638Z,3.58
2018-02-01T09:11:08.077Z,3.59
2018-02-01T09:11:33.582Z,3.68
2018-02-01T09:11:59.022Z,3.55
2018-02-01T09:12:24.505Z,3.56
2018-02-01T09:12:49.956Z,3.58
2018-02-01T09:13:15.452Z,3.59
2018-02-01T09:13:40.869Z,3.66
2018-02-01T09:14:06.380Z,3.69
2018-02-01T09:14:31.830Z,3.66
2018-02-01T09:14:57.303Z,3.76
2018-02-01T09:15:22.772Z,3.68
2018-02-01T09:15:48.240Z,3.68
2018-02-01T09:16:13.698Z,3.76
2018-02-01T09:16:39.176Z,3.78
2018-02-01T09:17:04.647Z,3.77
2018-02-01T09:17:30.115Z,3.81
2018-02-01T09:17:55.609Z,3.77
2018-02-01T09:18:21.085Z,3.83
2018-02-01T09:18:46.545Z,3.81
2018-02-01T09:19:12.020Z,3.86
2018-02-01T09:19:37.492Z,3.81
2018-02-01T09:20:02.985Z,3.88
2018-02-01T09:20:28.454Z,3.86
2018-02-01T09:20:53.914Z,3.91
2018-02-01T09:21:19.364Z,3.96
2018-02-01T09:21:44.810Z,3.99
2018-02-01T09:22:10.293Z,3.98
2018-02-01T09:22:35.724Z,3.96
2018-02-01T09:23:01.164Z,4.06
2018-02-01T09:23:26.661Z,3.96
2018-02-01T09:23:52.126Z,4.12
2018-02-01T09:24:17.589Z,3.99
2018-02-01T09:24:43.053Z,4.12
2018-02-01T09:25:36.471Z,4.12
2018-02-01T09:26:01.972Z,4.1
2018-02-01T09:26:27.482Z,4.19
2018-02-01T09:26:52.987Z,4.22
2018-02-01T09:27:18.475Z,4.17
2018-02-01T09:27:43.903Z,4.2
2018-02-01T09:28:09.403Z,4.2
2018-02-01T09:28:34.868Z,4.16
2018-02-01T09:29:00.317Z,4.16
2018-02-01T09:29:25.790Z,4.16
2018-02-01T09:29:51.252Z,4.14
2018-02-01T09:30:16.723Z,4.22
2018-02-01T09:30:42.188Z,4.23
2018-02-01T09:31:07.652Z,4.31
2018-02-01T09:31:33.163Z,4.26
2018-02-01T09:31:58.595Z,4.32
2018-02-01T09:32:24.066Z,4.32
2018-02-01T09:32:49.511Z,4.26
2018-02-01T09:33:14.983Z,4.32
2018-02-01T09:33:40.457Z,4.34
2018-02-01T09:34:05.915Z,4.35
2018-02-01T09:34:31.405Z,4.42
2018-02-01T09:34:56.866Z,4.35
2018-02-01T09:35:22.323Z,4.4
2018-02-01T09:35:47.811Z,4.35
2018-02-01T09:36:13.289Z,4.41
2018-02-01T09:36:38.761Z,4.44
2018-02-01T09:37:04.224Z,4.4
2018-02-01T09:37:29.686Z,4.45
2018-02-01T09:37:55.155Z,4.49
2018-02-01T09:38:20.689Z,4.48
2018-02-01T09:38:46.137Z,4.5
2018-02-01T09:39:11.579Z,4.56
2018-02-01T09:39:37.098Z,4.52
2018-02-01T09:40:02.539Z,4.5
2018-02-01T09:40:28.003Z,4.56
2018-02-01T09:40:53.499Z,4.42
2018-02-01T09:41:18.953Z,4.59
2018-02-01T09:41:44.430Z,4.62
2018-02-01T09:42:09.881Z,4.62
2018-02-01T09:42:35.337Z,4.6
2018-02-01T09:43:00.810Z,4.59
2018-02-01T09:43:26.272Z,4.62
2018-02-01T09:43:51.733Z,4.6
2018-02-01T09:44:17.223Z,4.63
2018-02-01T09:44:42.675Z,4.63
2018-02-01T09:45:08.163Z,4.66
2018-02-01T09:45:33.598Z,4.6
2018-02-01T09:45:59.077Z,4.52
2018-02-01T09:46:24.529Z,4.66
2018-02-01T09:46:49.996Z,4.67
2018-02-01T09:47:15.468Z,4.67
2018-02-01T09:47:41.011Z,4.66
2018-02-01T09:48:06.458Z,4.6
2018-02-01T09:48:31.942Z,4.6
2018-02-01T09:48:57.435Z,4.52
2018-02-01T09:49:22.889Z,4.62
2018-02-01T09:49:48.355Z,4.63
2018-02-01T09:50:13.810Z,4.58
2018-02-01T09:50:39.300Z,4.66
2018-02-01T09:51:04.770Z,4.67
2018-02-01T09:51:30.264Z,4.68
2018-02-01T09:51:55.710Z,4.6
2018-02-01T09:52:21.168Z,4.66
2018-02-01T09:52:46.645Z,4.59
2018-02-01T09:53:12.096Z,4.59
2018-02-01T09:53:37.556Z,4.58
2018-02-01T09:54:03.021Z,4.56
2018-02-01T09:54:28.490Z,4.5
2018-02-01T09:54:53.954Z,4.58
2018-02-01T09:55:19.408Z,4.52
2018-02-01T09:55:44.908Z,4.5
2018-02-01T09:56:10.390Z,4.53
2018-02-01T09:56:35.844Z,4.53
2018-02-01T09:57:39.506Z,4.5
2018-02-01T09:58:05.003Z,4.45
2018-02-01T09:58:30.492Z,4.5
2018-02-01T09:58:55.937Z,4.49
2018-02-01T09:59:21.426Z,4.48
2018-02-01T09:59:46.854Z,4.5
2018-02-01T10:00:12.328Z,4.45
2018-02-01T10:00:37.802Z,4.5
2018-02-01T10:01:03.275Z,4.45
2018-02-01T10:01:28.753Z,4.56
2018-02-01T10:01:54.232Z,4.52
2018-02-01T10:02:19.694Z,4.56
2018-02-01T10:02:45.153Z,4.55
2018-02-01T10:03:10.610Z,4.55
2018-02-01T10:03:36.073Z,4.59
2018-02-01T10:04:01.583Z,4.53
2018-02-01T10:04:27.079Z,4.49
2018-02-01T10:04:52.530Z,4.52
2018-02-01T10:05:18.006Z,4.6
2018-02-01T10:05:43.453Z,4.6
2018-02-01T10:06:08.944Z,4.6
2018-02-01T10:06:34.415Z,4.63
2018-02-01T10:06:59.871Z,4.68
2018-02-01T10:07:25.322Z,4.73
2018-02-01T10:07:50.826Z,4.62
2018-02-01T10:08:16.302Z,4.58
2018-02-01T10:08:41.786Z,4.6
2018-02-01T10:09:07.249Z,4.6
2018-02-01T10:09:32.708Z,4.66
2018-02-01T10:09:58.184Z,4.66
2018-02-01T10:10:23.688Z,4.75
2018-02-01T10:10:49.122Z,4.71
2018-02-01T10:11:14.692Z,4.74
2018-02-01T10:11:40.157Z,4.84
2018-02-01T10:12:05.684Z,4.86
2018-02-01T10:12:31.137Z,4.94
2018-02-01T10:12:56.616Z,5.02
2018-02-01T10:13:22.070Z,5.02
2018-02-01T10:13:47.537Z,5.12
2018-02-01T10:14:12.999Z,5.11
2018-02-01T10:14:38.487Z,5.17
2018-02-01T10:15:03.941Z,5.26
2018-02-01T10:15:29.575Z,5.3
2018-02-01T10:15:55.000Z,5.26
2018-02-01T10:16:20.494Z,5.35
2018-02-01T10:16:45.973Z,5.32
2018-02-01T10:17:11.413Z,5.32
2018-02-01T10:17:36.884Z,5.32
2018-02-01T10:18:02.335Z,5.32
2018-02-01T10:18:27.803Z,5.38
2018-02-01T10:18:53.289Z,5.36
2018-02-01T10:19:18.777Z,5.25
2018-02-01T10:19:44.245Z,5.26
2018-02-01T10:20:09.712Z,5.3
2018-02-01T10:20:35.211Z,5.33
2018-02-01T10:21:00.683Z,5.36
2018-02-01T10:21:26.164Z,5.33
2018-02-01T10:21:51.628Z,5.44
2018-02-01T10:22:17.168Z,5.38
2018-02-01T10:22:42.616Z,5.38
2018-02-01T10:23:08.118Z,5.35
2018-02-01T10:23:33.556Z,5.43
2018-02-01T10:23:59.034Z,5.43
2018-02-01T10:24:24.516Z,5.48
2018-02-01T10:24:49.993Z,5.35
2018-02-01T10:25:15.481Z,5.43
2018-02-01T10:25:40.974Z,5.51
2018-02-01T10:26:06.442Z,5.43
2018-02-01T10:26:31.930Z,5.51
2018-02-01T10:27:35.660Z,5.48
2018-02-01T10:28:01.151Z,5.39
2018-02-01T10:28:26.639Z,5.39
2018-02-01T10:28:52.232Z,5.48
2018-02-01T10:29:17.580Z,5.47
2018-02-01T10:29:43.039Z,5.53
2018-02-01T10:30:08.512Z,5.57
2018-02-01T10:30:33.988Z,5.54
2018-02-01T10:30:59.474Z,5.59
2018-02-01T10:31:24.911Z,5.62
2018-02-01T10:31:50.369Z,5.68
2018-02-01T10:32:15.832Z,5.61
2018-02-01T10:32:41.298Z,5.62
2018-02-01T10:33:06.759Z,5.62
2018-02-01T10:33:32.199Z,5.71
2018-02-01T10:33:57.678Z,5.75
2018-02-01T10:34:23.161Z,5.75
2018-02-01T10:34:48.593Z,5.75
2018-02-01T10:35:14.078Z,5.76
2018-02-01T10:35:39.591Z,5.8
2018-02-01T10:36:04.989Z,5.79
2018-02-01T10:36:30.461Z,5.8
2018-02-01T10:36:55.928Z,5.72
2018-02-01T10:37:21.410Z,5.82
2018-02-01T10:37:46.867Z,5.84
2018-02-01T10:38:12.331Z,5.89
2018-02-01T10:38:37.799Z,5.82
2018-02-01T10:39:03.249Z,5.84
2018-02-01T10:39:28.768Z,5.9
2018-02-01T10:39:54.203Z,5.86
2018-02-01T10:40:19.673Z,5.84
2018-02-01T10:40:45.168Z,5.82
2018-02-01T10:41:10.624Z,5.84
2018-02-01T10:41:36.097Z,5.82
2018-02-01T10:42:01.575Z,5.84
2018-02-01T10:42:27.017Z,5.89
2018-02-01T10:42:52.472Z,5.89
2018-02-01T10:43:17.938Z,5.8
2018-02-01T10:43:43.453Z,5.84
2018-02-01T10:44:08.887Z,5.8
2018-02-01T10:44:34.338Z,5.76
2018-02-01T10:44:59.777Z,5.89
2018-02-01T10:45:25.292Z,5.79